createdAt,value
2023-03-14T00:03:18.850Z,102188.91
2023-03-14T00:08:23.242Z,102188.03
2023-03-14T00:13:48.400Z,102194.78
2023-03-14T00:19:10.983Z,102193.88
2023-03-14T00:24:33.224Z,102197.19
2023-03-14T00:29:55.972Z,102186.91
2023-03-14T00:35:18.513Z,102173.94
2023-03-14T00:40:41.853Z,102187.66
2023-03-14T00:46:06.622Z,102191.00
2023-03-14T00:51:28.788Z,102208.13
2023-03-14T00:56:33.118Z,102191.91
2023-03-14T01:01:38.634Z,102209.03
2023-03-14T01:06:45.200Z,102205.66
2023-03-14T01:11:49.074Z,102198.13
2023-03-14T01:16:55.140Z,102202.78
2023-03-14T01:22:17.777Z,102194.50
2023-03-14T01:27:40.065Z,102194.72
2023-03-14T01:32:44.705Z,102110.06
2023-03-14T01:37:48.725Z,102199.94
2023-03-14T01:43:00.065Z,102198.22
2023-03-14T01:48:04.103Z,102195.59
2023-03-14T01:53:08.490Z,102199.09
2023-03-14T01:58:12.596Z,102192.34
2023-03-14T02:03:22.862Z,102181.38
2023-03-14T02:08:29.275Z,102188.34
2023-03-14T02:13:38.185Z,102190.09
2023-03-14T02:19:02.564Z,102179.00
2023-03-14T02:24:49.238Z,102189.31
2023-03-14T02:29:59.110Z,102193.56
2023-03-14T02:35:11.596Z,102181.53
2023-03-14T02:40:15.696Z,102192.53
2023-03-14T02:45:31.198Z,102185.53
2023-03-14T02:50:36.681Z,102198.25
2023-03-14T02:55:41.031Z,102118.56
2023-03-14T03:00:50.172Z,102161.84
2023-03-14T03:05:57.125Z,102186.34
2023-03-14T03:11:01.892Z,102187.84
2023-03-14T03:16:09.259Z,102191.75
2023-03-14T03:21:13.400Z,102169.41
2023-03-14T03:26:20.523Z,102192.25
2023-03-14T03:31:24.380Z,102165.44
2023-03-14T03:36:29.083Z,102188.22
2023-03-14T03:41:36.170Z,102170.81
2023-03-14T03:46:40.412Z,102188.09
2023-03-14T03:51:45.443Z,102181.00
2023-03-14T03:56:49.731Z,102177.97
2023-03-14T04:01:53.917Z,102165.38
2023-03-14T04:06:58.281Z,102164.41
2023-03-14T04:12:02.629Z,102168.59
2023-03-14T04:17:26.758Z,102163.34
2023-03-14T04:22:31.441Z,102156.69
2023-03-14T04:27:37.235Z,102151.34
2023-03-14T04:32:46.542Z,102111.25
2023-03-14T04:37:51.118Z,102135.72
2023-03-14T04:42:55.198Z,102135.69
2023-03-14T04:48:00.036Z,102120.81
2023-03-14T04:53:04.221Z,102125.69
2023-03-14T04:58:29.092Z,102125.44
2023-03-14T05:03:35.060Z,102131.00
2023-03-14T05:09:02.219Z,102108.63
2023-03-14T05:14:24.444Z,102121.00
2023-03-14T05:19:48.602Z,102110.13
2023-03-14T05:25:10.816Z,102099.09
2023-03-14T05:30:24.659Z,102081.81
2023-03-14T05:35:57.158Z,102042.50
2023-03-14T05:41:21.012Z,102101.41
2023-03-14T05:46:57.573Z,102103.75
2023-03-14T05:52:20.118Z,102096.22
2023-03-14T05:57:50.192Z,102079.06
2023-03-14T06:02:54.263Z,102063.97
2023-03-14T06:08:05.302Z,102087.13
2023-03-14T06:13:10.224Z,102085.59
2023-03-14T06:18:15.794Z,102077.94
2023-03-14T06:23:20.684Z,102079.59
2023-03-14T06:28:26.119Z,102079.75
2023-03-14T06:33:34.967Z,102061.06
2023-03-14T06:38:39.636Z,102033.09
2023-03-14T06:43:43.770Z,102059.53
2023-03-14T06:48:49.067Z,102071.50
2023-03-14T06:53:53.976Z,102064.41
2023-03-14T06:59:00.982Z,102061.81
2023-03-14T07:04:08.247Z,102055.34
2023-03-14T07:09:15.295Z,102053.78
2023-03-14T07:14:26.029Z,102044.44
2023-03-14T07:19:31.092Z,102035.53
2023-03-14T07:24:34.988Z,102045.69
2023-03-14T07:29:39.065Z,102032.50
2023-03-14T07:34:44.196Z,102042.94
2023-03-14T07:39:48.164Z,102020.53
2023-03-14T07:44:57.235Z,102025.63
2023-03-14T07:50:01.192Z,102021.03
2023-03-14T07:55:05.440Z,102018.41
2023-03-14T08:00:10.341Z,102011.44
2023-03-14T08:05:17.064Z,102000.03
2023-03-14T08:10:24.043Z,101991.44
2023-03-14T08:15:30.084Z,102002.53
2023-03-14T08:20:34.619Z,101947.19
2023-03-14T08:25:40.220Z,101998.41
2023-03-14T08:30:47.297Z,101985.44
2023-03-14T08:35:56.300Z,101979.31
2023-03-14T08:41:02.107Z,101984.97
2023-03-14T08:46:06.230Z,101991.84
2023-03-14T08:51:14.369Z,101977.41
2023-03-14T08:56:18.280Z,101987.16
2023-03-14T09:01:25.809Z,101969.25
2023-03-14T09:06:29.639Z,101965.13
2023-03-14T09:11:53.030Z,101959.84
2023-03-14T09:16:57.133Z,101960.13
2023-03-14T09:22:01.216Z,101950.97
2023-03-14T09:27:05.037Z,101963.63
2023-03-14T09:32:09.077Z,101959.53
2023-03-14T09:37:12.964Z,101954.41
2023-03-14T09:42:22.104Z,101903.75
2023-03-14T09:47:28.081Z,101937.28
2023-03-14T09:52:39.069Z,101921.00
2023-03-14T09:57:43.647Z,101930.44
2023-03-14T10:02:55.312Z,101922.88
2023-03-14T10:07:59.598Z,101923.66
2023-03-14T10:13:19.886Z,101926.19
2023-03-14T10:18:28.028Z,101911.75
2023-03-14T10:23:35.519Z,101918.63
2023-03-14T10:28:49.638Z,101911.03
2023-03-14T10:34:05.692Z,101905.22
2023-03-14T10:39:35.761Z,101893.28
2023-03-14T10:44:41.766Z,101888.25
2023-03-14T10:49:45.496Z,101890.97
2023-03-14T10:54:58.934Z,101884.97
2023-03-14T11:00:10.033Z,101885.06
2023-03-14T11:05:49.684Z,101888.72
2023-03-14T11:11:12.280Z,101883.72
2023-03-14T11:16:34.607Z,101869.28
2023-03-14T11:22:16.977Z,101867.91
2023-03-14T11:27:45.256Z,101865.66
2023-03-14T11:33:21.985Z,101863.31
2023-03-14T11:38:35.212Z,101863.44
2023-03-14T11:50:19.587Z,101855.50
2023-03-14T11:55:34.398Z,101856.75
2023-03-14T12:00:42.009Z,101838.00
2023-03-14T12:06:00.222Z,101852.13
2023-03-14T12:11:13.293Z,101850.88
2023-03-14T12:16:26.629Z,101852.09
2023-03-14T12:21:54.256Z,101850.13
2023-03-14T12:27:01.415Z,101847.09
2023-03-14T12:32:11.089Z,101847.31
2023-03-14T12:37:18.117Z,101848.38
2023-03-14T12:42:46.099Z,101843.47
2023-03-14T12:47:56.467Z,101835.25
2023-03-14T12:53:18.743Z,101840.59
2023-03-14T12:58:29.132Z,101842.78
2023-03-14T13:03:48.209Z,101811.66
2023-03-14T13:08:57.903Z,101838.19
2023-03-14T13:14:02.007Z,101840.13
2023-03-14T13:19:19.344Z,101849.75
2023-03-14T13:24:28.793Z,101843.09
2023-03-14T13:29:34.281Z,101842.34
2023-03-14T13:34:38.538Z,101827.88
2023-03-14T13:39:42.670Z,101806.84
2023-03-14T13:44:48.134Z,101828.31
2023-03-14T13:49:52.697Z,101829.34
2023-03-14T13:54:58.456Z,101826.84
2023-03-14T14:00:11.904Z,101821.00
2023-03-14T14:05:17.044Z,101818.56
2023-03-14T14:10:22.060Z,101817.75
2023-03-14T14:15:30.057Z,101814.34
2023-03-14T14:20:41.842Z,101753.00
2023-03-14T14:25:45.994Z,101808.56
2023-03-14T14:31:06.920Z,101774.47
2023-03-14T14:36:28.052Z,101806.94
2023-03-14T14:41:35.387Z,101799.28
2023-03-14T14:46:39.767Z,101789.97
2023-03-14T14:52:02.363Z,101790.88
2023-03-14T14:57:08.376Z,101774.69
2023-03-14T15:02:31.796Z,101774.72
2023-03-14T15:07:35.722Z,101772.19
2023-03-14T15:12:39.694Z,101767.94
2023-03-14T15:17:44.333Z,101764.56
2023-03-14T15:22:49.169Z,101762.00
2023-03-14T15:27:53.226Z,101760.28
2023-03-14T15:32:57.112Z,101743.25
2023-03-14T15:38:01.106Z,101745.78
2023-03-14T15:43:05.327Z,101750.03
2023-03-14T15:48:17.165Z,101729.50
2023-03-14T15:53:21.030Z,101743.09
2023-03-14T15:58:25.018Z,101732.88
2023-03-14T16:03:30.381Z,101720.13
2023-03-14T16:08:34.621Z,101724.38
2023-03-14T16:13:39.349Z,101697.81
2023-03-14T16:18:43.405Z,101725.81
2023-03-14T16:23:48.005Z,101712.91
2023-03-14T16:28:52.023Z,101708.59
2023-03-14T16:33:55.910Z,101694.06
2023-03-14T16:38:59.919Z,101690.56
2023-03-14T16:44:04.078Z,101682.81
2023-03-14T16:49:07.880Z,101675.00
2023-03-14T16:54:11.899Z,101679.09
2023-03-14T17:04:25.377Z,101660.03
2023-03-14T17:09:29.442Z,101661.66
2023-03-14T17:14:33.441Z,101670.13
2023-03-14T17:19:37.255Z,101670.88
2023-03-14T17:24:41.247Z,101654.66
2023-03-14T17:29:45.423Z,101655.41
2023-03-14T17:34:49.174Z,101651.16
2023-03-14T17:39:53.218Z,101663.78
2023-03-14T17:44:58.213Z,101649.22
2023-03-14T17:50:05.878Z,101637.09
2023-03-14T17:55:10.219Z,101649.94
2023-03-14T18:00:15.300Z,101647.19
2023-03-14T18:05:19.619Z,101637.69
2023-03-14T18:10:23.888Z,101627.41
2023-03-14T18:15:27.779Z,101625.41
2023-03-14T18:20:32.065Z,101624.53
2023-03-14T18:25:35.865Z,101623.53
2023-03-14T18:30:39.814Z,101594.44
2023-03-14T18:35:43.773Z,101607.97
2023-03-14T18:40:47.714Z,101611.03
2023-03-14T18:45:51.638Z,101608.16
2023-03-14T18:50:55.639Z,101598.72
2023-03-14T18:56:01.415Z,101594.25
2023-03-14T19:01:06.545Z,101594.06
2023-03-14T19:06:12.796Z,101592.16
2023-03-14T19:11:17.662Z,101596.16
2023-03-14T19:16:23.448Z,101588.25
2023-03-14T19:21:35.780Z,101586.47
2023-03-14T19:26:39.620Z,101559.81
2023-03-14T19:31:43.707Z,101577.53
2023-03-14T19:36:47.473Z,101510.03
2023-03-14T19:41:58.164Z,101569.97
2023-03-14T19:47:01.956Z,101571.56
2023-03-14T19:52:06.088Z,101564.78
2023-03-14T19:57:09.999Z,101481.34
2023-03-14T20:02:16.688Z,101545.34
2023-03-14T20:07:22.835Z,101550.94
2023-03-14T20:12:26.962Z,101535.56
2023-03-14T20:17:31.060Z,101538.78
2023-03-14T20:22:39.831Z,101537.72
2023-03-14T20:27:43.768Z,101533.16
2023-03-14T20:32:48.875Z,101535.84
2023-03-14T20:37:56.825Z,101514.38
2023-03-14T20:43:00.907Z,101515.44
2023-03-14T20:48:05.000Z,101510.34
2023-03-14T20:53:08.858Z,101508.44
2023-03-14T20:58:16.655Z,101499.56
2023-03-14T21:03:20.185Z,101506.00
2023-03-14T21:08:26.493Z,101502.91
2023-03-14T21:13:31.993Z,101488.94
2023-03-14T21:18:36.001Z,101405.53
2023-03-14T21:23:39.910Z,101484.94
2023-03-14T21:28:43.847Z,101496.56
2023-03-14T21:33:49.611Z,101489.47
2023-03-14T21:38:53.734Z,101486.09
2023-03-14T21:43:57.464Z,101465.59
2023-03-14T21:49:01.405Z,101469.59
2023-03-14T21:54:10.994Z,101391.91
2023-03-14T21:59:15.530Z,101473.19
2023-03-14T22:04:19.334Z,101378.22
2023-03-14T22:09:23.463Z,101462.59
2023-03-14T22:14:27.839Z,101442.50
2023-03-14T22:19:33.204Z,101455.22
2023-03-14T22:24:36.982Z,101459.31
2023-03-14T22:29:41.308Z,101470.25
2023-03-14T22:34:45.362Z,101444.13
2023-03-14T22:39:49.231Z,101460.22
2023-03-14T22:44:53.740Z,101442.97
2023-03-14T22:49:57.482Z,101458.13
2023-03-14T22:55:01.427Z,101456.88
2023-03-14T23:00:13.777Z,101456.25
2023-03-14T23:05:17.780Z,101420.91
2023-03-14T23:10:22.386Z,101451.56
2023-03-14T23:15:27.139Z,101443.41
2023-03-14T23:20:31.067Z,101447.16
2023-03-14T23:25:52.081Z,101437.78
2023-03-14T23:30:59.246Z,101440.25
2023-03-14T23:36:05.192Z,101430.28
2023-03-14T23:41:10.279Z,101441.84
2023-03-14T23:46:16.395Z,101426.66
2023-03-14T23:51:20.203Z,101422.47
2023-03-14T23:56:24.200Z,101392.34
